createdAt,value
2017-11-18T00:02:01.811Z,65.17
2017-11-18T00:04:30.371Z,60.30
2017-11-18T00:06:58.238Z,54.03
2017-11-18T00:09:26.185Z,54.13
2017-11-18T00:11:53.969Z,61.20
2017-11-18T00:14:22.119Z,59.63
2017-11-18T00:16:50.704Z,61.90
2017-11-18T00:19:19.501Z,59.40
2017-11-18T00:21:47.386Z,58.23
2017-11-18T00:24:15.248Z,55.83
2017-11-18T00:26:43.114Z,65.83
2017-11-18T00:29:10.920Z,54.30
2017-11-18T00:31:38.882Z,55.80
2017-11-18T00:34:07.553Z,59.20
2017-11-18T00:36:36.109Z,59.60
2017-11-18T00:39:04.173Z,54.07
2017-11-18T00:41:32.058Z,65.33
2017-11-18T00:44:00.608Z,65.33
2017-11-18T00:46:28.541Z,65.93
2017-11-18T00:48:56.367Z,67.20
2017-11-18T00:51:24.353Z,70.27
2017-11-18T00:53:52.203Z,78.20
2017-11-18T00:56:20.066Z,73.97
2017-11-18T00:58:48.139Z,61.43
2017-11-18T01:01:15.907Z,73.63
2017-11-18T01:03:43.787Z,62.80
2017-11-18T01:06:12.463Z,72.97
2017-11-18T01:08:40.324Z,72.63
2017-11-18T01:11:08.227Z,67.47
2017-11-18T01:13:36.880Z,66.77
2017-11-18T01:16:04.825Z,70.37
2017-11-18T01:18:32.688Z,62.73
2017-11-18T01:21:00.594Z,73.90
2017-11-18T01:23:29.388Z,73.73
2017-11-18T01:25:57.956Z,70.83
2017-11-18T01:28:27.441Z,62.13
2017-11-18T01:30:55.293Z,68.63
2017-11-18T01:33:23.231Z,68.03
2017-11-18T01:35:51.141Z,75.07
2017-11-18T01:38:18.953Z,65.80
2017-11-18T01:40:47.615Z,71.00
2017-11-18T01:43:16.369Z,71.33
2017-11-18T01:45:44.260Z,68.33
2017-11-18T01:48:12.229Z,67.27
2017-11-18T01:50:39.994Z,67.43
2017-11-18T01:53:08.141Z,68.33
2017-11-18T01:55:36.008Z,68.33
2017-11-18T01:58:03.889Z,76.90
2017-11-18T02:00:31.840Z,58.30
2017-11-18T02:02:59.618Z,66.30
2017-11-18T02:05:27.519Z,71.10
2017-11-18T02:07:56.181Z,78.53
2017-11-18T02:10:24.046Z,63.47
2017-11-18T02:12:51.993Z,73.43
2017-11-18T02:15:19.888Z,60.83
2017-11-18T02:17:47.839Z,63.23
2017-11-18T02:20:15.725Z,57.33
2017-11-18T02:22:43.666Z,57.47
2017-11-18T02:25:11.598Z,51.47
2017-11-18T02:27:39.527Z,64.50
2017-11-18T02:30:07.474Z,60.37
2017-11-18T02:32:35.455Z,67.80
2017-11-18T02:35:03.618Z,57.90
2017-11-18T02:37:31.531Z,63.40
2017-11-18T02:39:59.466Z,57.20
2017-11-18T02:42:27.348Z,58.93
2017-11-18T02:44:56.126Z,54.10
2017-11-18T02:47:24.094Z,55.23
2017-11-18T02:49:51.964Z,58.53
2017-11-18T02:52:19.968Z,57.70
2017-11-18T02:54:48.731Z,56.63
2017-11-18T02:57:17.399Z,59.80
2017-11-18T02:59:45.347Z,64.60
2017-11-18T03:02:13.168Z,64.83
2017-11-18T03:04:42.002Z,66.70
2017-11-18T03:07:09.896Z,58.83
2017-11-18T03:09:37.868Z,60.20
2017-11-18T03:12:06.648Z,58.57
2017-11-18T03:14:34.512Z,65.53
2017-11-18T03:17:02.380Z,56.90
2017-11-18T03:19:31.249Z,62.90
2017-11-18T03:21:59.122Z,61.70
2017-11-18T03:24:26.897Z,58.00
2017-11-18T03:26:54.746Z,63.60
2017-11-18T03:29:22.625Z,56.00
2017-11-18T03:31:50.406Z,62.33
2017-11-18T03:34:18.468Z,64.73
2017-11-18T03:36:46.437Z,67.33
2017-11-18T03:39:14.367Z,63.27
2017-11-18T03:41:42.166Z,65.33
2017-11-18T03:44:10.013Z,62.13
2017-11-18T03:46:37.826Z,79.10
2017-11-18T03:49:06.564Z,60.17
2017-11-18T03:51:34.360Z,69.93
2017-11-18T03:54:02.297Z,76.63
2017-11-18T03:59:23.625Z,61.13
2017-11-18T04:01:51.470Z,72.33
2017-11-18T04:04:19.384Z,75.23
2017-11-18T04:06:47.170Z,71.70
2017-11-18T04:09:15.945Z,65.07
2017-11-18T04:11:43.883Z,71.03
2017-11-18T04:14:11.765Z,63.93
2017-11-18T04:16:40.258Z,69.63
2017-11-18T04:19:08.097Z,70.03
2017-11-18T04:21:35.991Z,63.00
2017-11-18T04:24:03.930Z,58.67
2017-11-18T04:26:31.902Z,59.97
2017-11-18T04:28:59.773Z,63.33
2017-11-18T04:31:27.652Z,54.67
2017-11-18T04:33:55.440Z,69.43
2017-11-18T04:36:24.080Z,63.17
2017-11-18T04:38:51.971Z,63.37
2017-11-18T04:41:19.855Z,65.57
2017-11-18T04:43:48.532Z,72.73
2017-11-18T04:46:16.296Z,73.63
2017-11-18T04:48:44.235Z,71.80
2017-11-18T04:51:12.049Z,68.17
2017-11-18T04:53:40.703Z,77.50
2017-11-18T04:56:08.564Z,72.83
2017-11-18T04:58:36.471Z,77.37
2017-11-18T05:01:05.130Z,83.40
2017-11-18T05:03:33.824Z,75.40
2017-11-18T05:06:01.672Z,84.47
2017-11-18T05:08:29.515Z,79.93
2017-11-18T05:10:57.590Z,82.03
2017-11-18T05:13:25.384Z,90.07
2017-11-18T05:15:53.250Z,89.53
2017-11-18T05:18:21.160Z,93.00
2017-11-18T05:20:49.003Z,89.40
2017-11-18T05:23:17.630Z,97.37
2017-11-18T05:25:46.186Z,93.20
2017-11-18T05:28:14.195Z,95.67
2017-11-18T05:30:42.076Z,104.87
2017-11-18T05:33:10.031Z,121.47
2017-11-18T05:35:38.200Z,103.00
2017-11-18T05:38:06.168Z,115.80
2017-11-18T05:40:33.955Z,93.10
2017-11-18T05:43:01.837Z,96.27
2017-11-18T05:45:30.996Z,87.03
2017-11-18T05:47:58.893Z,93.97
2017-11-18T05:50:27.589Z,102.77
2017-11-18T05:52:56.162Z,107.40
2017-11-18T05:55:24.125Z,118.70
2017-11-18T05:57:51.985Z,113.07
2017-11-18T06:00:19.972Z,111.40
2017-11-18T06:02:48.010Z,103.63
2017-11-18T06:05:15.973Z,105.93
2017-11-18T06:07:43.720Z,97.60
2017-11-18T06:10:11.638Z,100.97
2017-11-18T06:12:40.675Z,88.07
2017-11-18T06:15:08.593Z,92.70
2017-11-18T06:17:36.454Z,94.10
2017-11-18T06:20:04.437Z,88.37
2017-11-18T06:22:32.287Z,79.27
2017-11-18T06:25:00.253Z,88.00
2017-11-18T06:27:28.106Z,86.17
2017-11-18T06:29:55.897Z,74.63
2017-11-18T06:32:24.573Z,89.97
2017-11-18T06:34:53.236Z,85.23
2017-11-18T06:37:21.224Z,79.87
2017-11-18T06:39:49.004Z,77.03
2017-11-18T06:42:16.858Z,78.27
2017-11-18T06:44:44.806Z,77.67
2017-11-18T06:47:12.691Z,79.10
2017-11-18T06:49:41.185Z,70.37
2017-11-18T06:52:10.368Z,70.83
2017-11-18T06:54:38.230Z,78.30
2017-11-18T06:57:06.009Z,70.63
2017-11-18T06:59:33.771Z,82.90
2017-11-18T07:02:02.500Z,78.77
2017-11-18T07:04:30.317Z,66.57
2017-11-18T07:06:58.672Z,86.80
2017-11-18T07:09:26.663Z,75.53
2017-11-18T07:11:54.637Z,80.43
2017-11-18T07:14:22.681Z,68.03
2017-11-18T07:16:50.465Z,76.53
2017-11-18T07:19:18.334Z,74.53
2017-11-18T07:21:46.205Z,83.73
2017-11-18T07:24:15.612Z,72.47
2017-11-18T07:26:43.650Z,80.20
2017-11-18T07:29:11.726Z,77.83
2017-11-18T07:31:39.689Z,82.33
2017-11-18T07:34:07.666Z,79.67
2017-11-18T07:36:35.633Z,73.30
2017-11-18T07:39:03.562Z,69.57
2017-11-18T07:41:31.461Z,80.67
2017-11-18T07:43:59.258Z,75.10
2017-11-18T07:46:27.110Z,86.70
2017-11-18T07:48:55.061Z,80.40
2017-11-18T07:51:23.028Z,77.17
2017-11-18T07:53:50.842Z,73.20
2017-11-18T07:56:19.582Z,74.30
2017-11-18T07:58:47.590Z,74.93
2017-11-18T08:01:16.266Z,77.10
2017-11-18T08:03:44.205Z,71.43
2017-11-18T08:06:11.998Z,68.63
2017-11-18T08:08:39.740Z,68.70
2017-11-18T08:11:07.625Z,66.67
2017-11-18T08:13:35.576Z,65.50
2017-11-18T08:16:03.399Z,71.17
2017-11-18T08:18:31.215Z,67.87
2017-11-18T08:20:59.016Z,71.00
2017-11-18T08:23:27.853Z,58.17
2017-11-18T08:25:55.823Z,56.07
2017-11-18T08:28:23.729Z,68.87
2017-11-18T08:30:52.341Z,61.40
2017-11-18T08:33:20.215Z,74.33
2017-11-18T08:35:48.137Z,64.43
2017-11-18T08:38:16.080Z,63.93
2017-11-18T08:40:44.263Z,62.60
2017-11-18T08:43:12.133Z,71.83
2017-11-18T08:45:39.977Z,67.03
2017-11-18T08:48:08.076Z,56.17
2017-11-18T08:50:36.057Z,66.17
2017-11-18T08:53:04.621Z,68.30
2017-11-18T08:55:32.711Z,65.47
2017-11-18T08:58:01.462Z,59.20
2017-11-18T09:00:29.534Z,63.30
2017-11-18T09:02:57.434Z,66.40
2017-11-18T09:05:25.474Z,66.63
2017-11-18T09:07:53.849Z,72.07
2017-11-18T09:10:22.026Z,58.13
2017-11-18T09:12:50.019Z,67.03
2017-11-18T09:15:18.076Z,59.30
2017-11-18T09:17:45.954Z,58.60
2017-11-18T09:20:13.898Z,61.53
2017-11-18T09:22:41.863Z,66.30
2017-11-18T09:25:09.788Z,60.10
2017-11-18T09:27:37.807Z,62.43
2017-11-18T09:30:05.698Z,56.20
2017-11-18T09:32:33.642Z,73.43
2017-11-18T09:35:01.611Z,61.43
2017-11-18T09:37:29.982Z,70.27
2017-11-18T09:39:57.875Z,62.80
2017-11-18T09:42:25.838Z,58.73
2017-11-18T09:44:54.564Z,58.33
2017-11-18T09:47:23.233Z,62.60
2017-11-18T09:49:51.986Z,63.17
2017-11-18T09:52:19.764Z,59.33
2017-11-18T09:54:47.613Z,59.70
2017-11-18T09:57:15.500Z,61.70
2017-11-18T09:59:43.445Z,60.50
2017-11-18T10:02:11.328Z,51.43
2017-11-18T10:04:39.288Z,66.40
2017-11-18T10:07:08.820Z,66.87
2017-11-18T10:09:37.500Z,60.50
2017-11-18T10:12:05.263Z,64.80
2017-11-18T10:14:34.129Z,65.03
2017-11-18T10:17:02.024Z,60.80
2017-11-18T10:19:30.069Z,61.00
2017-11-18T10:21:58.479Z,54.87
2017-11-18T10:24:27.138Z,58.90
2017-11-18T10:26:55.040Z,59.57
2017-11-18T10:29:23.717Z,56.57
2017-11-18T10:31:52.341Z,56.90
2017-11-18T10:34:20.338Z,60.27
2017-11-18T10:36:48.307Z,62.90
2017-11-18T10:39:16.275Z,63.97
2017-11-18T10:41:44.054Z,57.07
2017-11-18T10:44:12.125Z,56.57
2017-11-18T10:46:39.999Z,60.80
2017-11-18T10:49:07.969Z,66.17
2017-11-18T10:51:35.833Z,61.70
2017-11-18T10:54:03.776Z,60.47
2017-11-18T10:56:31.765Z,56.73
2017-11-18T10:58:59.714Z,60.67
2017-11-18T11:01:27.681Z,61.13
2017-11-18T11:03:55.650Z,57.40
2017-11-18T11:06:23.633Z,61.47
2017-11-18T11:08:51.524Z,55.43
2017-11-18T11:11:20.193Z,49.80
2017-11-18T11:13:50.001Z,45.67
2017-11-18T11:18:51.160Z,40.07
2017-11-18T11:21:19.214Z,43.30
2017-11-18T11:23:47.042Z,43.00
2017-11-18T11:26:15.057Z,37.83
2017-11-18T11:28:42.915Z,40.63
2017-11-18T11:31:10.911Z,41.20
2017-11-18T11:33:38.800Z,43.97
2017-11-18T11:36:07.558Z,46.90
2017-11-18T11:38:35.426Z,35.53
2017-11-18T11:41:03.513Z,38.53
2017-11-18T11:43:31.545Z,35.93
2017-11-18T11:45:59.620Z,38.00
2017-11-18T11:48:28.635Z,36.37
2017-11-18T11:50:56.575Z,37.20
2017-11-18T11:53:24.555Z,33.17
2017-11-18T11:55:53.060Z,41.40
2017-11-18T11:58:21.006Z,33.57
2017-11-18T12:00:49.278Z,39.70
2017-11-18T12:03:17.266Z,43.77
2017-11-18T12:05:45.955Z,44.80
2017-11-18T12:08:14.001Z,34.33
2017-11-18T12:10:42.010Z,25.17
2017-11-18T12:13:10.145Z,22.07
2017-11-18T12:15:38.190Z,26.20
2017-11-18T12:18:05.992Z,21.17
2017-11-18T12:20:33.873Z,21.90
2017-11-18T12:23:01.933Z,21.57
2017-11-18T12:25:29.885Z,23.77
2017-11-18T12:27:57.961Z,21.00
2017-11-18T12:30:26.047Z,26.10
2017-11-18T12:32:54.132Z,22.17
2017-11-18T12:35:22.683Z,21.37
2017-11-18T12:37:50.756Z,24.10
2017-11-18T12:40:18.665Z,28.07
2017-11-18T12:42:47.330Z,33.83
2017-11-18T12:45:15.170Z,28.80
2017-11-18T12:47:43.141Z,25.10
2017-11-18T12:50:11.230Z,27.37
2017-11-18T12:52:39.078Z,28.60
2017-11-18T12:55:07.150Z,23.60
2017-11-18T12:57:35.120Z,26.93
2017-11-18T13:00:03.188Z,29.07
2017-11-18T13:02:31.198Z,28.97
2017-11-18T13:05:00.458Z,25.20
2017-11-18T13:07:28.250Z,22.90
2017-11-18T13:10:00.475Z,28.20
2017-11-18T13:12:28.489Z,31.87
2017-11-18T13:14:56.321Z,37.80
2017-11-18T13:17:25.142Z,42.73
2017-11-18T13:19:53.910Z,67.83
2017-11-18T13:22:21.871Z,60.43
2017-11-18T13:24:49.740Z,31.80
2017-11-18T13:27:17.729Z,35.47
2017-11-18T13:29:45.686Z,34.17
2017-11-18T13:32:13.558Z,31.33
2017-11-18T13:34:41.372Z,31.67
2017-11-18T13:37:09.377Z,31.90
2017-11-18T13:39:37.299Z,30.07
2017-11-18T13:42:06.029Z,31.03
2017-11-18T13:44:34.000Z,33.03
2017-11-18T13:47:02.100Z,34.30
2017-11-18T13:49:29.950Z,30.73
2017-11-18T13:51:57.835Z,37.97
2017-11-18T13:54:25.689Z,26.83
2017-11-18T13:56:53.765Z,24.97
2017-11-18T13:59:21.624Z,27.67
2017-11-18T14:01:49.503Z,25.37
2017-11-18T14:04:17.349Z,42.83
2017-11-18T14:06:45.192Z,79.13
2017-11-18T14:09:13.109Z,42.70
2017-11-18T14:11:40.984Z,42.70
2017-11-18T14:14:09.843Z,78.53
2017-11-18T14:16:37.716Z,67.70
2017-11-18T14:19:05.598Z,53.03
2017-11-18T14:21:33.458Z,44.23
2017-11-18T14:24:01.235Z,41.43
2017-11-18T14:26:30.091Z,26.53
2017-11-18T14:28:58.068Z,23.43
2017-11-18T14:31:25.946Z,37.67
2017-11-18T14:33:53.903Z,22.90
2017-11-18T14:36:21.782Z,20.20
2017-11-18T14:38:49.603Z,20.53
2017-11-18T14:41:17.604Z,19.07
2017-11-18T14:43:45.660Z,26.23
2017-11-18T14:46:13.557Z,26.00
2017-11-18T14:48:42.248Z,20.97
2017-11-18T14:51:10.035Z,18.07
2017-11-18T14:53:38.766Z,18.90
2017-11-18T14:56:06.762Z,19.30
2017-11-18T14:58:34.835Z,18.97
2017-11-18T15:01:02.798Z,15.27
2017-11-18T15:03:30.769Z,16.10
2017-11-18T15:05:58.707Z,16.70
2017-11-18T15:08:27.434Z,17.30
2017-11-18T15:10:55.428Z,21.33
2017-11-18T15:13:23.475Z,13.83
2017-11-18T15:15:59.091Z,16.97
2017-11-18T15:18:32.891Z,11.03
2017-11-18T15:21:06.600Z,12.83
2017-11-18T15:23:40.212Z,16.17
2017-11-18T15:26:13.874Z,20.53
2017-11-18T15:28:47.432Z,20.30
2017-11-18T15:31:20.634Z,17.30
2017-11-18T15:34:04.328Z,19.13
2017-11-18T15:36:32.434Z,24.30
2017-11-18T15:39:02.665Z,22.80
2017-11-18T15:41:31.441Z,19.17
2017-11-18T15:44:14.431Z,16.93
2017-11-18T15:46:43.990Z,19.43
2017-11-18T15:49:19.377Z,20.67
2017-11-18T15:51:57.179Z,21.70
2017-11-18T15:54:30.797Z,17.30
2017-11-18T15:57:02.668Z,26.60
2017-11-18T15:59:31.645Z,25.17
2017-11-18T16:02:01.366Z,26.13
2017-11-18T16:04:46.619Z,22.40
2017-11-18T16:07:14.686Z,19.07
2017-11-18T16:09:42.723Z,20.83
2017-11-18T16:12:10.712Z,20.83
2017-11-18T16:14:38.924Z,29.67
2017-11-18T16:17:07.606Z,19.23
2017-11-18T16:19:35.555Z,29.73
2017-11-18T16:22:03.730Z,28.07
2017-11-18T16:24:31.713Z,27.00
2017-11-18T16:26:59.907Z,31.30
2017-11-18T16:29:28.685Z,27.93
2017-11-18T16:31:56.640Z,28.73
2017-11-18T16:34:24.630Z,33.10
2017-11-18T16:36:52.585Z,55.23
2017-11-18T16:39:20.551Z,35.90
2017-11-18T16:41:49.455Z,29.67
2017-11-18T16:44:17.602Z,43.47
2017-11-18T16:46:46.466Z,43.30
2017-11-18T16:49:14.471Z,37.23
2017-11-18T16:51:42.526Z,42.87
2017-11-18T16:54:10.616Z,38.60
2017-11-18T16:56:38.601Z,37.73
2017-11-18T16:59:06.847Z,38.53
2017-11-18T17:01:34.787Z,35.53
2017-11-18T17:04:02.923Z,38.20
2017-11-18T17:06:31.677Z,43.23
2017-11-18T17:08:59.533Z,55.90
2017-11-18T17:11:27.747Z,37.30
2017-11-18T17:13:57.539Z,32.33
2017-11-18T17:16:25.611Z,40.30
2017-11-18T17:18:53.593Z,38.57
2017-11-18T17:21:21.555Z,39.70
2017-11-18T17:23:49.736Z,36.50
2017-11-18T17:26:17.583Z,34.90
2017-11-18T17:28:46.462Z,39.27
2017-11-18T17:31:14.570Z,36.90
2017-11-18T17:33:43.571Z,33.40
2017-11-18T17:36:13.276Z,33.63
2017-11-18T17:38:42.127Z,33.43
2017-11-18T17:41:15.961Z,37.17
2017-11-18T17:43:44.338Z,38.03
2017-11-18T17:46:12.522Z,38.60
2017-11-18T17:48:41.407Z,32.50
2017-11-18T17:51:10.705Z,32.47
2017-11-18T17:53:39.385Z,34.50
2017-11-18T17:56:09.073Z,40.97
2017-11-18T17:58:37.861Z,33.00
2017-11-18T18:01:06.099Z,37.80
2017-11-18T18:03:34.137Z,48.63
2017-11-18T18:06:02.287Z,40.03
2017-11-18T18:08:30.366Z,38.83
2017-11-18T18:10:58.424Z,39.73
2017-11-18T18:13:27.212Z,38.47
2017-11-18T18:15:55.631Z,36.20
2017-11-18T18:18:24.481Z,32.77
2017-11-18T18:20:52.795Z,38.60
2017-11-18T18:23:21.463Z,39.83
2017-11-18T18:25:49.608Z,39.23
2017-11-18T18:28:17.614Z,38.70
2017-11-18T18:30:46.271Z,34.30
2017-11-18T18:33:14.232Z,43.67
2017-11-18T18:35:43.227Z,44.03
2017-11-18T18:38:11.912Z,44.43
2017-11-18T18:40:40.013Z,45.27
2017-11-18T18:43:09.495Z,43.80
2017-11-18T18:45:37.456Z,43.60
2017-11-18T18:48:05.417Z,39.03
2017-11-18T18:50:33.503Z,38.23
2017-11-18T18:53:01.561Z,38.27
2017-11-18T18:55:29.763Z,44.70
2017-11-18T18:57:58.847Z,38.53
2017-11-18T19:00:26.853Z,37.77
2017-11-18T19:02:55.733Z,38.20
2017-11-18T19:05:24.426Z,37.50
2017-11-18T19:07:53.375Z,35.13
2017-11-18T19:10:21.467Z,41.20
2017-11-18T19:12:49.749Z,35.07
2017-11-18T19:15:18.303Z,34.00
2017-11-18T19:17:46.198Z,41.20
2017-11-18T19:20:14.344Z,39.00
2017-11-18T19:22:42.344Z,37.60
2017-11-18T19:25:10.218Z,40.00
2017-11-18T19:27:39.000Z,35.60
2017-11-18T19:30:10.015Z,36.87
2017-11-18T19:32:38.559Z,33.60
2017-11-18T19:35:06.660Z,37.40
2017-11-18T19:37:34.792Z,40.67
2017-11-18T19:40:03.732Z,36.40
2017-11-18T19:42:31.633Z,44.00
2017-11-18T19:45:00.489Z,37.10
2017-11-18T19:47:28.485Z,42.10
2017-11-18T19:49:57.449Z,38.30
2017-11-18T19:52:25.433Z,43.93
2017-11-18T19:54:54.848Z,36.93
2017-11-18T19:57:23.611Z,36.60
2017-11-18T19:59:51.495Z,32.37
2017-11-18T20:02:19.439Z,50.20
2017-11-18T20:04:48.138Z,42.63
2017-11-18T20:07:17.119Z,37.50
2017-11-18T20:09:45.237Z,32.93
2017-11-18T20:12:13.907Z,38.27
2017-11-18T20:14:42.154Z,30.60
2017-11-18T20:17:10.219Z,36.60
2017-11-18T20:19:38.195Z,40.73
2017-11-18T20:22:06.268Z,36.00
2017-11-18T20:24:34.538Z,44.80
2017-11-18T20:27:02.716Z,36.70
2017-11-18T20:29:30.887Z,31.73
2017-11-18T20:31:58.737Z,27.97
2017-11-18T20:34:27.132Z,36.23
2017-11-18T20:36:55.137Z,44.07
2017-11-18T20:39:24.673Z,37.20
2017-11-18T20:41:52.675Z,28.03
2017-11-18T20:44:21.671Z,33.53
2017-11-18T20:46:50.069Z,30.10
2017-11-18T20:49:18.122Z,31.37
2017-11-18T20:51:46.180Z,39.77
2017-11-18T20:54:14.184Z,37.67
2017-11-18T20:56:42.004Z,36.30
2017-11-18T20:59:10.149Z,32.30
2017-11-18T21:01:38.173Z,33.73
2017-11-18T21:04:06.389Z,32.47
2017-11-18T21:06:35.122Z,36.67
2017-11-18T21:09:03.194Z,39.03
2017-11-18T21:11:31.456Z,33.40
2017-11-18T21:13:59.656Z,40.47
2017-11-18T21:16:27.665Z,29.47
2017-11-18T21:18:56.323Z,36.13
2017-11-18T21:21:24.401Z,34.00
2017-11-18T21:23:52.794Z,36.53
2017-11-18T21:26:21.853Z,39.07
2017-11-18T21:28:50.359Z,34.57
2017-11-18T21:31:18.533Z,32.83
2017-11-18T21:33:46.579Z,34.50
2017-11-18T21:36:14.847Z,33.37
2017-11-18T21:38:42.925Z,34.07
2017-11-18T21:41:10.991Z,33.27
2017-11-18T21:43:39.102Z,27.27
2017-11-18T21:46:07.950Z,27.83
2017-11-18T21:48:37.207Z,27.70
2017-11-18T21:51:05.230Z,29.33
2017-11-18T21:53:33.401Z,29.23
2017-11-18T21:56:01.380Z,26.70
2017-11-18T21:58:30.464Z,30.13
2017-11-18T22:00:58.628Z,24.70
2017-11-18T22:03:26.520Z,27.83
2017-11-18T22:05:54.484Z,24.77
2017-11-18T22:08:22.747Z,31.67
2017-11-18T22:10:50.913Z,26.80
2017-11-18T22:13:19.325Z,29.63
2017-11-18T22:15:47.281Z,27.60
2017-11-18T22:18:15.154Z,28.13
2017-11-18T22:20:43.101Z,28.90
2017-11-18T22:23:10.984Z,30.37
2017-11-18T22:25:39.678Z,28.40
2017-11-18T22:28:07.725Z,28.70
2017-11-18T22:30:35.815Z,26.37
2017-11-18T22:33:03.672Z,42.37
2017-11-18T22:35:31.632Z,40.67
2017-11-18T22:37:59.491Z,32.83
2017-11-18T22:40:27.381Z,32.67
2017-11-18T22:42:55.321Z,30.20
2017-11-18T22:45:23.380Z,29.63
2017-11-18T22:47:52.101Z,29.60
2017-11-18T22:50:19.973Z,30.77
2017-11-18T22:52:49.549Z,34.20
2017-11-18T22:55:17.524Z,34.30
2017-11-18T22:57:45.703Z,33.20
2017-11-18T23:00:14.150Z,32.47
2017-11-18T23:02:42.275Z,37.87
2017-11-18T23:05:10.218Z,33.40
2017-11-18T23:07:38.108Z,34.90
2017-11-18T23:10:05.953Z,40.00
2017-11-18T23:12:33.846Z,34.30
2017-11-18T23:15:01.786Z,36.73
2017-11-18T23:17:29.779Z,38.03
2017-11-18T23:19:57.966Z,38.10
2017-11-18T23:22:25.836Z,33.13
2017-11-18T23:24:54.505Z,41.30
2017-11-18T23:27:22.893Z,37.63
2017-11-18T23:29:50.729Z,34.57
2017-11-18T23:32:18.626Z,35.47
2017-11-18T23:34:47.319Z,44.17
2017-11-18T23:37:16.064Z,37.00
2017-11-18T23:39:44.144Z,40.93
2017-11-18T23:42:12.126Z,40.60
2017-11-18T23:44:40.096Z,36.47
2017-11-18T23:47:08.149Z,42.10
2017-11-18T23:49:36.133Z,40.57
2017-11-18T23:52:04.088Z,38.63
2017-11-18T23:54:31.905Z,38.83
2017-11-18T23:57:00.533Z,39.50
2017-11-18T23:59:28.502Z,43.77
